createdAt,value
2023-05-19T00:00:18.625Z,94806.00
2023-05-19T00:01:18.618Z,94808.00
2023-05-19T00:02:18.636Z,94802.00
2023-05-19T00:03:18.652Z,94802.00
2023-05-19T00:04:18.631Z,94806.00
2023-05-19T00:05:18.649Z,94800.00
2023-05-19T00:06:18.724Z,94800.00
2023-05-19T00:07:18.623Z,94799.00
2023-05-19T00:08:18.624Z,94800.00
2023-05-19T00:09:18.612Z,94799.00
2023-05-19T00:10:18.625Z,94797.00
2023-05-19T00:11:18.625Z,94797.00
2023-05-19T00:12:18.629Z,94797.00
2023-05-19T00:13:18.606Z,94797.00
2023-05-19T00:14:18.611Z,94795.00
2023-05-19T00:15:18.634Z,94799.00
2023-05-19T00:16:18.701Z,94799.00
2023-05-19T00:17:18.612Z,94799.00
2023-05-19T00:18:18.634Z,94799.00
2023-05-19T00:19:18.627Z,94797.00
2023-05-19T00:20:18.624Z,94800.00
2023-05-19T00:21:18.634Z,94797.00
2023-05-19T00:22:18.643Z,94797.00
2023-05-19T00:23:18.612Z,94800.00
2023-05-19T00:24:18.622Z,94799.00
2023-05-19T00:25:18.635Z,94800.00
2023-05-19T00:26:18.608Z,94797.00
2023-05-19T00:27:18.702Z,94799.00
2023-05-19T00:28:18.614Z,94802.00
2023-05-19T00:29:18.701Z,94802.00
2023-05-19T00:30:18.609Z,94802.00
2023-05-19T00:31:18.634Z,94799.00
2023-05-19T00:32:18.655Z,94800.00
2023-05-19T00:33:18.597Z,94800.00
2023-05-19T00:34:18.604Z,94800.00
2023-05-19T00:35:18.609Z,94802.00
2023-05-19T00:36:18.603Z,94800.00
2023-05-19T00:37:18.619Z,94800.00
2023-05-19T00:38:18.586Z,94800.00
2023-05-19T00:39:18.602Z,94797.00
2023-05-19T00:40:18.598Z,94800.00
2023-05-19T00:41:18.595Z,94799.00
2023-05-19T00:42:18.593Z,94797.00
2023-05-19T00:43:18.593Z,94799.00
2023-05-19T00:44:18.575Z,94797.00
2023-05-19T00:45:18.589Z,94795.00
2023-05-19T00:46:18.615Z,94795.00
2023-05-19T00:47:18.573Z,94795.00
2023-05-19T00:48:18.586Z,94795.00
2023-05-19T00:49:18.595Z,94795.00
2023-05-19T00:50:18.577Z,94795.00
2023-05-19T00:51:18.594Z,94793.00
2023-05-19T00:52:18.620Z,94791.00
2023-05-19T00:53:18.579Z,94791.00
2023-05-19T00:54:18.580Z,94791.00
2023-05-19T00:55:18.580Z,94789.00
2023-05-19T00:56:18.573Z,94787.00
2023-05-19T00:57:18.576Z,94787.00
2023-05-19T00:58:18.581Z,94787.00
2023-05-19T00:59:18.587Z,94791.00
2023-05-19T01:00:18.599Z,94789.00
2023-05-19T01:01:18.624Z,94787.00
2023-05-19T01:02:18.559Z,94791.00
2023-05-19T01:03:18.674Z,94789.00
2023-05-19T01:04:18.584Z,94793.00
2023-05-19T01:05:18.566Z,94789.00
2023-05-19T01:06:18.571Z,94787.00
2023-05-19T01:07:18.576Z,94785.00
2023-05-19T01:08:18.590Z,94785.00
2023-05-19T01:09:18.593Z,94785.00
2023-05-19T01:10:18.607Z,94785.00
2023-05-19T01:11:18.596Z,94785.00
2023-05-19T01:12:18.595Z,94785.00
2023-05-19T01:13:18.579Z,94785.00
2023-05-19T01:14:18.589Z,94785.00
2023-05-19T01:15:18.597Z,94785.00
2023-05-19T01:16:18.665Z,94785.00
2023-05-19T01:17:18.592Z,94785.00
2023-05-19T01:18:18.607Z,94785.00
2023-05-19T01:19:18.697Z,94787.00
2023-05-19T01:20:18.600Z,94787.00
2023-05-19T01:21:18.612Z,94787.00
2023-05-19T01:22:18.576Z,94787.00
2023-05-19T01:23:18.596Z,94785.00
2023-05-19T01:24:18.584Z,94783.00
2023-05-19T01:25:18.604Z,94785.00
2023-05-19T01:26:18.596Z,94787.00
2023-05-19T01:27:18.602Z,94783.00
2023-05-19T01:28:18.607Z,94785.00
2023-05-19T01:29:18.592Z,94783.00
2023-05-19T01:30:18.587Z,94783.00
2023-05-19T01:31:18.652Z,94783.00
2023-05-19T01:32:18.571Z,94785.00
2023-05-19T01:33:18.580Z,94787.00
2023-05-19T01:34:18.587Z,94785.00
2023-05-19T01:35:18.561Z,94787.00
2023-05-19T01:36:18.562Z,94785.00
2023-05-19T01:37:18.569Z,94787.00
2023-05-19T01:38:18.552Z,94787.00
2023-05-19T01:39:18.565Z,94787.00
2023-05-19T01:40:18.561Z,94787.00
2023-05-19T01:41:18.553Z,94787.00
2023-05-19T01:42:18.565Z,94791.00
2023-05-19T01:43:18.540Z,94791.00
2023-05-19T01:44:18.550Z,94791.00
2023-05-19T01:45:18.547Z,94789.00
2023-05-19T01:46:18.566Z,94791.00
2023-05-19T01:47:18.537Z,94791.00
2023-05-19T01:48:18.556Z,94789.00
2023-05-19T01:49:18.550Z,94791.00
2023-05-19T01:50:18.536Z,94791.00
2023-05-19T01:51:18.534Z,94791.00
2023-05-19T01:52:18.547Z,94791.00
2023-05-19T01:53:18.561Z,94789.00
2023-05-19T01:54:18.537Z,94789.00
2023-05-19T01:55:18.530Z,94787.00
2023-05-19T01:56:18.528Z,94789.00
2023-05-19T01:57:18.533Z,94789.00
2023-05-19T01:58:18.508Z,94791.00
2023-05-19T01:59:18.508Z,94785.00
2023-05-19T02:00:19.358Z,94789.00
2023-05-19T02:01:18.795Z,94789.00
2023-05-19T02:02:18.743Z,94785.00
2023-05-19T02:03:18.755Z,94785.00
2023-05-19T02:04:18.835Z,94789.00
2023-05-19T02:05:18.768Z,94789.00
2023-05-19T02:06:18.770Z,94791.00
2023-05-19T02:07:18.752Z,94791.00
2023-05-19T02:08:18.749Z,94793.00
2023-05-19T02:09:18.749Z,94795.00
2023-05-19T02:10:18.754Z,94795.00
2023-05-19T02:11:18.767Z,94795.00
2023-05-19T02:12:18.772Z,94795.00
2023-05-19T02:13:18.754Z,94795.00
2023-05-19T02:14:18.754Z,94791.00
2023-05-19T02:15:18.778Z,94793.00
2023-05-19T02:16:18.927Z,94795.00
2023-05-19T02:17:18.770Z,94791.00
2023-05-19T02:18:18.760Z,94795.00
2023-05-19T02:19:18.800Z,94795.00
2023-05-19T02:20:18.748Z,94793.00
2023-05-19T02:21:18.754Z,94795.00
2023-05-19T02:22:18.765Z,94793.00
2023-05-19T02:23:18.764Z,94793.00
2023-05-19T02:24:18.750Z,94793.00
2023-05-19T02:25:18.780Z,94791.00
2023-05-19T02:26:18.765Z,94791.00
2023-05-19T02:27:18.770Z,94793.00
2023-05-19T02:28:18.772Z,94789.00
2023-05-19T02:29:18.792Z,94793.00
2023-05-19T02:30:18.773Z,94791.00
2023-05-19T02:31:18.804Z,94791.00
2023-05-19T02:32:18.845Z,94793.00
2023-05-19T02:33:18.800Z,94793.00
2023-05-19T02:34:18.772Z,94793.00
2023-05-19T02:35:18.777Z,94793.00
2023-05-19T02:36:18.792Z,94793.00
2023-05-19T02:37:18.806Z,94793.00
2023-05-19T02:38:18.790Z,94793.00
2023-05-19T02:39:18.800Z,94793.00
2023-05-19T02:40:18.792Z,94795.00
2023-05-19T02:41:18.790Z,94797.00
2023-05-19T02:42:18.817Z,94795.00
2023-05-19T02:43:18.800Z,94793.00
2023-05-19T02:44:18.790Z,94793.00
2023-05-19T02:45:18.798Z,94791.00
2023-05-19T02:46:18.815Z,94793.00
2023-05-19T02:47:18.806Z,94791.00
2023-05-19T02:48:18.810Z,94793.00
2023-05-19T02:49:18.817Z,94789.00
2023-05-19T02:50:18.809Z,94791.00
2023-05-19T02:51:18.808Z,94791.00
2023-05-19T02:52:18.820Z,94789.00
2023-05-19T02:53:18.801Z,94789.00
2023-05-19T02:54:18.824Z,94787.00
2023-05-19T02:55:18.824Z,94787.00
2023-05-19T02:56:18.825Z,94787.00
2023-05-19T02:57:18.823Z,94787.00
2023-05-19T02:58:18.833Z,94787.00
2023-05-19T02:59:18.830Z,94785.00
2023-05-19T03:00:18.855Z,94785.00
2023-05-19T03:01:18.866Z,94783.00
2023-05-19T03:02:18.854Z,94783.00
2023-05-19T03:03:18.900Z,94781.00
2023-05-19T03:04:18.869Z,94783.00
2023-05-19T03:05:18.861Z,94779.00
2023-05-19T03:06:18.871Z,94779.00
2023-05-19T03:07:18.874Z,94779.00
2023-05-19T03:08:18.892Z,94775.00
2023-05-19T03:09:18.882Z,94775.00
2023-05-19T03:10:18.889Z,94775.00
2023-05-19T03:11:18.899Z,94777.00
2023-05-19T03:12:18.908Z,94777.00
2023-05-19T03:13:18.919Z,94779.00
2023-05-19T03:14:18.940Z,94775.00
2023-05-19T03:15:18.933Z,94777.00
2023-05-19T03:16:18.978Z,94777.00
2023-05-19T03:17:18.947Z,94775.00
2023-05-19T03:18:18.966Z,94775.00
2023-05-19T03:19:18.974Z,94777.00
2023-05-19T03:20:18.918Z,94775.00
2023-05-19T03:21:18.931Z,94775.00
2023-05-19T03:22:18.912Z,94777.00
2023-05-19T03:23:18.918Z,94773.00
2023-05-19T03:24:18.932Z,94775.00
2023-05-19T03:25:18.943Z,94771.00
2023-05-19T03:26:18.944Z,94771.00
2023-05-19T03:27:18.948Z,94771.00
2023-05-19T03:28:18.964Z,94773.00
2023-05-19T03:29:18.962Z,94771.00
2023-05-19T03:30:18.965Z,94771.00
2023-05-19T03:31:19.012Z,94771.00
2023-05-19T03:32:19.032Z,94773.00
2023-05-19T03:33:19.096Z,94771.00
2023-05-19T03:34:19.025Z,94773.00
2023-05-19T03:35:19.031Z,94771.00
2023-05-19T03:36:19.052Z,94773.00
2023-05-19T03:37:19.072Z,94775.00
2023-05-19T03:38:19.050Z,94773.00
2023-05-19T03:39:19.054Z,94771.00
2023-05-19T03:40:19.082Z,94773.00
2023-05-19T03:41:19.071Z,94773.00
2023-05-19T03:42:19.069Z,94771.00
2023-05-19T03:43:19.073Z,94771.00
2023-05-19T03:44:19.105Z,94767.00
2023-05-19T03:45:19.110Z,94767.00
2023-05-19T03:46:19.129Z,94765.00
2023-05-19T03:47:19.106Z,94767.00
2023-05-19T03:48:21.201Z,94767.00
2023-05-19T03:49:19.130Z,94767.00
2023-05-19T03:50:19.121Z,94767.00
2023-05-19T03:51:19.118Z,94765.00
2023-05-19T03:52:19.133Z,94767.00
2023-05-19T03:53:19.120Z,94767.00
2023-05-19T03:54:19.133Z,94765.00
2023-05-19T03:55:19.137Z,94767.00
2023-05-19T03:56:19.146Z,94767.00
2023-05-19T03:57:19.135Z,94769.00
2023-05-19T03:58:19.175Z,94767.00
2023-05-19T03:59:19.130Z,94769.00
2023-05-19T04:00:19.134Z,94769.00
2023-05-19T04:01:19.161Z,94769.00
2023-05-19T04:02:19.480Z,94769.00
2023-05-19T04:03:19.255Z,94769.00
2023-05-19T04:04:19.226Z,94767.00
2023-05-19T04:05:19.181Z,94769.00
2023-05-19T04:06:19.221Z,94767.00
2023-05-19T04:07:19.195Z,94765.00
2023-05-19T04:08:19.198Z,94765.00
2023-05-19T04:09:19.196Z,94765.00
2023-05-19T04:10:19.210Z,94769.00
2023-05-19T04:11:19.212Z,94769.00
2023-05-19T04:12:19.233Z,94767.00
2023-05-19T04:13:19.220Z,94769.00
2023-05-19T04:14:19.225Z,94769.00
2023-05-19T04:15:19.244Z,94771.00
2023-05-19T04:16:19.277Z,94769.00
2023-05-19T04:17:19.267Z,94773.00
2023-05-19T04:18:19.256Z,94771.00
2023-05-19T04:19:19.518Z,94773.00
2023-05-19T04:20:19.267Z,94769.00
2023-05-19T04:21:19.282Z,94771.00
2023-05-19T04:22:19.259Z,94771.00
2023-05-19T04:23:19.278Z,94773.00
2023-05-19T04:24:19.283Z,94773.00
2023-05-19T04:25:19.276Z,94777.00
2023-05-19T04:26:19.266Z,94777.00
2023-05-19T04:27:19.286Z,94779.00
2023-05-19T04:28:19.278Z,94781.00
2023-05-19T04:29:19.292Z,94781.00
2023-05-19T04:30:19.298Z,94779.00
2023-05-19T04:31:19.317Z,94779.00
2023-05-19T04:32:19.295Z,94779.00
2023-05-19T04:33:19.299Z,94779.00
2023-05-19T04:34:19.295Z,94779.00
2023-05-19T04:35:19.283Z,94781.00
2023-05-19T04:36:19.285Z,94783.00
2023-05-19T04:37:19.300Z,94783.00
2023-05-19T04:38:19.288Z,94787.00
2023-05-19T04:39:19.299Z,94787.00
2023-05-19T04:40:19.305Z,94783.00
2023-05-19T04:41:19.311Z,94787.00
2023-05-19T04:42:19.377Z,94785.00
2023-05-19T04:43:19.289Z,94783.00
2023-05-19T04:44:19.325Z,94783.00
2023-05-19T04:45:19.312Z,94783.00
2023-05-19T04:46:19.332Z,94785.00
2023-05-19T04:47:19.296Z,94785.00
2023-05-19T04:48:19.293Z,94783.00
2023-05-19T04:49:19.319Z,94783.00
2023-05-19T04:50:19.292Z,94785.00
2023-05-19T04:51:19.298Z,94781.00
2023-05-19T04:52:19.286Z,94783.00
2023-05-19T04:53:19.282Z,94783.00
2023-05-19T04:54:19.282Z,94787.00
2023-05-19T04:55:19.278Z,94785.00
2023-05-19T04:56:19.281Z,94783.00
2023-05-19T04:57:19.304Z,94783.00
2023-05-19T04:58:19.326Z,94781.00
2023-05-19T04:59:19.369Z,94781.00
2023-05-19T05:00:19.397Z,94783.00
2023-05-19T05:01:19.478Z,94783.00
2023-05-19T05:02:19.528Z,94783.00
2023-05-19T05:03:19.488Z,94783.00
2023-05-19T05:04:19.452Z,94781.00
2023-05-19T05:05:19.445Z,94783.00
2023-05-19T05:06:19.452Z,94783.00
2023-05-19T05:07:19.490Z,94783.00
2023-05-19T05:08:19.487Z,94783.00
2023-05-19T05:09:19.477Z,94781.00
2023-05-19T05:10:19.483Z,94781.00
2023-05-19T05:11:19.506Z,94783.00
2023-05-19T05:12:19.482Z,94779.00
2023-05-19T05:13:19.486Z,94779.00
2023-05-19T05:14:19.488Z,94779.00
2023-05-19T05:15:19.462Z,94783.00
2023-05-19T05:16:19.497Z,94783.00
2023-05-19T05:17:19.476Z,94785.00
2023-05-19T05:18:19.472Z,94787.00
2023-05-19T05:19:19.466Z,94785.00
2023-05-19T05:20:19.475Z,94785.00
2023-05-19T05:21:19.491Z,94785.00
2023-05-19T05:22:19.500Z,94785.00
2023-05-19T05:23:19.491Z,94785.00
2023-05-19T05:24:19.468Z,94783.00
2023-05-19T05:25:19.478Z,94783.00
2023-05-19T05:26:19.505Z,94781.00
2023-05-19T05:27:19.473Z,94783.00
2023-05-19T05:28:19.491Z,94783.00
2023-05-19T05:29:19.473Z,94785.00
2023-05-19T05:30:19.503Z,94783.00
2023-05-19T05:31:19.482Z,94783.00
2023-05-19T05:32:19.497Z,94783.00
2023-05-19T05:33:19.588Z,94783.00
2023-05-19T05:34:19.493Z,94779.00
2023-05-19T05:35:19.471Z,94779.00
2023-05-19T05:36:19.479Z,94779.00
2023-05-19T05:37:19.483Z,94779.00
2023-05-19T05:38:19.524Z,94777.00
2023-05-19T05:39:19.491Z,94777.00
2023-05-19T05:40:19.501Z,94781.00
2023-05-19T05:41:19.513Z,94781.00
2023-05-19T05:42:19.508Z,94781.00
2023-05-19T05:43:19.508Z,94781.00
2023-05-19T05:44:19.541Z,94781.00
2023-05-19T05:45:19.505Z,94779.00
2023-05-19T05:46:19.540Z,94781.00
2023-05-19T05:47:19.518Z,94781.00
2023-05-19T05:48:19.525Z,94779.00
2023-05-19T05:49:19.537Z,94779.00
2023-05-19T05:50:19.572Z,94781.00
2023-05-19T05:51:19.560Z,94781.00
2023-05-19T05:52:19.585Z,94781.00
2023-05-19T05:53:19.614Z,94781.00
2023-05-19T05:54:19.641Z,94781.00
2023-05-19T05:55:19.674Z,94783.00
2023-05-19T05:56:19.702Z,94779.00
2023-05-19T05:57:19.736Z,94779.00
2023-05-19T05:58:19.783Z,94779.00
2023-05-19T05:59:19.796Z,94781.00
2023-05-19T06:00:19.838Z,94781.00
2023-05-19T06:01:19.866Z,94781.00
2023-05-19T06:02:19.911Z,94783.00
2023-05-19T06:03:20.010Z,94783.00
2023-05-19T06:04:19.948Z,94781.00
2023-05-19T06:05:19.988Z,94779.00
2023-05-19T06:06:19.944Z,94779.00
2023-05-19T06:07:19.954Z,94779.00
2023-05-19T06:08:19.984Z,94773.00
2023-05-19T06:09:19.997Z,94775.00
2023-05-19T06:10:20.030Z,94773.00
2023-05-19T06:11:20.051Z,94773.00
2023-05-19T06:12:20.070Z,94771.00
2023-05-19T06:13:20.114Z,94775.00
2023-05-19T06:14:20.146Z,94773.00
2023-05-19T06:15:20.168Z,94773.00
2023-05-19T06:16:20.275Z,94775.00
2023-05-19T06:17:20.264Z,94771.00
2023-05-19T06:18:20.296Z,94773.00
2023-05-19T06:19:20.394Z,94773.00
2023-05-19T06:20:20.402Z,94773.00
2023-05-19T06:21:20.489Z,94775.00
2023-05-19T06:22:20.521Z,94773.00
2023-05-19T06:23:20.574Z,94777.00
2023-05-19T06:24:20.653Z,94781.00
2023-05-19T06:25:20.704Z,94777.00
2023-05-19T06:26:20.773Z,94773.00
2023-05-19T06:27:20.826Z,94773.00
2023-05-19T06:28:20.882Z,94775.00
2023-05-19T06:29:20.926Z,94773.00
2023-05-19T06:30:20.972Z,94771.00
2023-05-19T06:31:21.096Z,94769.00
2023-05-19T06:32:21.066Z,94771.00
2023-05-19T06:33:21.119Z,94769.00
2023-05-19T06:34:21.205Z,94767.00
2023-05-19T06:35:21.232Z,94769.00
2023-05-19T06:36:21.304Z,94765.00
2023-05-19T06:37:21.352Z,94765.00
2023-05-19T06:38:21.434Z,94763.00
2023-05-19T06:39:21.493Z,94761.00
2023-05-19T06:40:21.543Z,94761.00
2023-05-19T06:41:21.626Z,94761.00
2023-05-19T06:42:21.686Z,94761.00
2023-05-19T06:43:21.702Z,94759.00
2023-05-19T06:44:21.774Z,94759.00
2023-05-19T06:45:21.836Z,94759.00
2023-05-19T06:46:21.900Z,94761.00
2023-05-19T06:47:21.927Z,94761.00
2023-05-19T06:48:21.989Z,94761.00
2023-05-19T06:49:22.041Z,94759.00
2023-05-19T06:50:22.104Z,94759.00
2023-05-19T06:51:22.146Z,94759.00
2023-05-19T06:52:22.218Z,94761.00
2023-05-19T06:53:22.278Z,94761.00
2023-05-19T06:54:22.399Z,94763.00
2023-05-19T06:55:22.414Z,94763.00
2023-05-19T06:56:22.476Z,94763.00
2023-05-19T06:57:22.506Z,94761.00
2023-05-19T06:58:22.549Z,94759.00
2023-05-19T06:59:22.619Z,94761.00
2023-05-19T07:00:23.981Z,94761.00
2023-05-19T07:01:22.839Z,94761.00
2023-05-19T07:02:22.767Z,94761.00
2023-05-19T07:03:22.875Z,94761.00
2023-05-19T07:04:22.882Z,94761.00
2023-05-19T07:05:22.939Z,94759.00
2023-05-19T07:06:23.054Z,94761.00
2023-05-19T07:07:23.053Z,94759.00
2023-05-19T07:08:23.114Z,94759.00
2023-05-19T07:09:23.156Z,94757.00
2023-05-19T07:10:23.215Z,94755.00
2023-05-19T07:11:23.261Z,94757.00
2023-05-19T07:12:23.309Z,94757.00
2023-05-19T07:13:25.317Z,94755.00
2023-05-19T07:14:23.373Z,94755.00
2023-05-19T07:15:23.345Z,94755.00
2023-05-19T07:16:23.380Z,94752.00
2023-05-19T07:17:23.404Z,94757.00
2023-05-19T07:18:23.333Z,94755.00
2023-05-19T07:19:23.345Z,94753.00
2023-05-19T07:20:23.308Z,94753.00
2023-05-19T07:21:23.315Z,94752.00
2023-05-19T07:22:23.294Z,94753.00
2023-05-19T07:23:23.293Z,94752.00
2023-05-19T07:24:23.298Z,94752.00
2023-05-19T07:25:23.272Z,94748.00
2023-05-19T07:26:23.269Z,94750.00
2023-05-19T07:27:23.278Z,94746.00
2023-05-19T07:28:23.264Z,94746.00
2023-05-19T07:29:23.260Z,94746.00
2023-05-19T07:30:23.240Z,94742.00
2023-05-19T07:31:23.297Z,94740.00
2023-05-19T07:32:23.436Z,94740.00
2023-05-19T07:33:23.220Z,94738.00
2023-05-19T07:34:23.235Z,94734.00
2023-05-19T07:35:23.242Z,94732.00
2023-05-19T07:36:23.211Z,94730.00
2023-05-19T07:37:23.215Z,94732.00
2023-05-19T07:38:23.191Z,94732.00
2023-05-19T07:39:23.213Z,94728.00
2023-05-19T07:40:23.197Z,94730.00
2023-05-19T07:41:23.206Z,94726.00
2023-05-19T07:42:23.179Z,94724.00
2023-05-19T07:43:23.171Z,94720.00
2023-05-19T07:44:23.174Z,94724.00
2023-05-19T07:45:23.180Z,94724.00
2023-05-19T07:46:23.202Z,94722.00
2023-05-19T07:47:23.131Z,94720.00
2023-05-19T07:48:23.155Z,94718.00
2023-05-19T07:49:23.119Z,94718.00
2023-05-19T07:50:23.112Z,94716.00
2023-05-19T07:51:23.116Z,94716.00
2023-05-19T07:52:23.114Z,94716.00
2023-05-19T07:53:23.112Z,94712.00
2023-05-19T07:54:23.080Z,94716.00
2023-05-19T07:55:23.130Z,94714.00
2023-05-19T07:56:23.065Z,94714.00
2023-05-19T07:57:23.082Z,94712.00
2023-05-19T07:58:23.076Z,94712.00
2023-05-19T07:59:23.060Z,94712.00
2023-05-19T08:00:23.048Z,94708.00
2023-05-19T08:01:23.036Z,94708.00
2023-05-19T08:02:23.114Z,94712.00
2023-05-19T08:03:23.106Z,94710.00
2023-05-19T08:04:23.088Z,94706.00
2023-05-19T08:05:23.054Z,94708.00
2023-05-19T08:06:23.061Z,94708.00
2023-05-19T08:07:23.061Z,94706.00
2023-05-19T08:08:23.090Z,94708.00
2023-05-19T08:09:23.100Z,94706.00
2023-05-19T08:10:23.072Z,94708.00
2023-05-19T08:11:23.084Z,94704.00
2023-05-19T08:12:23.094Z,94704.00
2023-05-19T08:13:23.060Z,94702.00
2023-05-19T08:14:23.094Z,94700.00
2023-05-19T08:15:23.111Z,94704.00
2023-05-19T08:16:23.168Z,94700.00
2023-05-19T08:17:23.236Z,94702.00
2023-05-19T08:18:23.100Z,94697.00
2023-05-19T08:19:23.180Z,94698.00
2023-05-19T08:20:23.196Z,94698.00
2023-05-19T08:21:23.165Z,94697.00
2023-05-19T08:22:23.206Z,94695.00
2023-05-19T08:23:23.196Z,94695.00
2023-05-19T08:24:23.202Z,94695.00
2023-05-19T08:25:23.205Z,94687.00
2023-05-19T08:26:23.200Z,94687.00
2023-05-19T08:27:23.192Z,94685.00
2023-05-19T08:28:23.185Z,94683.00
2023-05-19T08:29:23.203Z,94683.00
2023-05-19T08:30:23.267Z,94681.00
2023-05-19T08:31:23.235Z,94681.00
2023-05-19T08:32:23.282Z,94681.00
2023-05-19T08:33:23.235Z,94681.00
2023-05-19T08:34:23.250Z,94681.00
2023-05-19T08:35:23.263Z,94681.00
2023-05-19T08:36:23.272Z,94679.00
2023-05-19T08:37:23.282Z,94681.00
2023-05-19T08:38:23.283Z,94677.00
2023-05-19T08:39:23.296Z,94681.00
2023-05-19T08:40:23.391Z,94681.00
2023-05-19T08:41:23.366Z,94677.00
2023-05-19T08:42:23.369Z,94679.00
2023-05-19T08:43:23.387Z,94679.00
2023-05-19T08:44:23.393Z,94681.00
2023-05-19T08:45:23.432Z,94679.00
2023-05-19T08:46:23.447Z,94683.00
2023-05-19T08:47:23.445Z,94683.00
2023-05-19T08:48:23.443Z,94681.00
2023-05-19T08:49:25.472Z,94683.00
2023-05-19T08:50:23.565Z,94681.00
2023-05-19T08:51:23.497Z,94681.00
2023-05-19T08:52:23.546Z,94675.00
2023-05-19T08:53:33.387Z,94679.00
2023-05-19T08:54:24.516Z,94673.00
2023-05-19T08:55:23.504Z,94673.00
2023-05-19T08:56:23.512Z,94671.00
2023-05-19T08:57:23.515Z,94671.00
2023-05-19T08:58:23.506Z,94673.00
2023-05-19T08:59:23.484Z,94669.00
2023-05-19T09:00:23.637Z,94667.00
2023-05-19T09:01:23.549Z,94669.00
2023-05-19T09:02:23.593Z,94667.00
2023-05-19T09:03:24.133Z,94661.00
2023-05-19T09:04:23.511Z,94665.00
2023-05-19T09:05:23.494Z,94659.00
2023-05-19T09:06:23.552Z,94659.00
2023-05-19T09:07:23.430Z,94661.00
2023-05-19T09:08:23.432Z,94661.00
2023-05-19T09:09:23.436Z,94659.00
2023-05-19T09:10:23.420Z,94653.00
2023-05-19T09:11:23.416Z,94653.00
2023-05-19T09:12:23.411Z,94651.00
2023-05-19T09:13:23.393Z,94651.00
2023-05-19T09:14:23.389Z,94646.00
2023-05-19T09:15:23.378Z,94646.00
2023-05-19T09:16:23.378Z,94646.00
2023-05-19T09:17:23.395Z,94644.00
2023-05-19T09:18:23.345Z,94644.00
2023-05-19T09:19:23.439Z,94642.00
2023-05-19T09:20:23.353Z,94642.00
2023-05-19T09:21:23.334Z,94638.00
2023-05-19T09:22:23.321Z,94642.00
2023-05-19T09:23:23.327Z,94648.00
2023-05-19T09:24:23.381Z,94646.00
2023-05-19T09:25:23.389Z,94646.00
2023-05-19T09:26:23.496Z,94646.00
2023-05-19T09:27:23.450Z,94634.00
2023-05-19T09:28:23.470Z,94634.00
2023-05-19T09:29:23.513Z,94642.00
2023-05-19T09:30:23.541Z,94632.00
2023-05-19T09:31:23.592Z,94632.00
2023-05-19T09:32:23.636Z,94630.00
2023-05-19T09:33:23.659Z,94630.00
2023-05-19T09:34:23.719Z,94630.00
2023-05-19T09:35:23.767Z,94620.00
2023-05-19T09:36:23.839Z,94618.00
2023-05-19T09:37:23.886Z,94628.00
2023-05-19T09:38:23.961Z,94628.00
2023-05-19T09:39:24.043Z,94616.00
2023-05-19T09:40:24.031Z,94614.00
2023-05-19T09:41:24.080Z,94614.00
2023-05-19T09:42:24.128Z,94612.00
2023-05-19T09:43:24.198Z,94610.00
2023-05-19T09:44:24.249Z,94612.00
2023-05-19T09:45:24.315Z,94608.00
2023-05-19T09:46:24.385Z,94608.00
2023-05-19T09:47:24.452Z,94608.00
2023-05-19T09:48:24.495Z,94605.00
2023-05-19T09:49:24.556Z,94605.00
2023-05-19T09:50:24.589Z,94605.00
2023-05-19T09:51:24.653Z,94603.00
2023-05-19T09:52:24.722Z,94599.00
2023-05-19T09:53:24.775Z,94595.00
2023-05-19T09:54:24.820Z,94593.00
2023-05-19T09:55:24.851Z,94591.00
2023-05-19T09:56:24.942Z,94591.00
2023-05-19T09:57:24.948Z,94593.00
2023-05-19T09:58:24.970Z,94593.00
2023-05-19T09:59:24.946Z,94593.00
2023-05-19T10:00:24.951Z,94589.00
2023-05-19T10:01:24.995Z,94585.00
2023-05-19T10:02:24.979Z,94583.00
2023-05-19T10:03:24.973Z,94581.00
2023-05-19T10:04:24.998Z,94577.00
2023-05-19T10:05:24.994Z,94575.00
2023-05-19T10:06:24.983Z,94573.00
2023-05-19T10:07:25.001Z,94573.00
2023-05-19T10:08:24.979Z,94569.00
2023-05-19T10:09:24.997Z,94567.00
2023-05-19T10:10:24.992Z,94565.00
2023-05-19T10:11:25.016Z,94563.00
2023-05-19T10:12:25.029Z,94559.00
2023-05-19T10:13:25.039Z,94557.00
2023-05-19T10:14:25.044Z,94557.00
2023-05-19T10:15:25.032Z,94559.00
2023-05-19T10:16:25.097Z,94559.00
2023-05-19T10:17:25.111Z,94559.00
2023-05-19T10:18:25.066Z,94557.00
2023-05-19T10:19:25.078Z,94559.00
2023-05-19T10:20:25.052Z,94559.00
2023-05-19T10:21:25.049Z,94559.00
2023-05-19T10:22:25.084Z,94557.00
2023-05-19T10:23:25.055Z,94555.00
2023-05-19T10:24:25.075Z,94553.00
2023-05-19T10:25:25.082Z,94555.00
2023-05-19T10:26:25.079Z,94551.00
2023-05-19T10:27:25.067Z,94551.00
2023-05-19T10:28:25.061Z,94550.00
2023-05-19T10:29:25.082Z,94550.00
2023-05-19T10:30:25.074Z,94550.00
2023-05-19T10:31:25.082Z,94550.00
2023-05-19T10:32:25.136Z,94550.00
2023-05-19T10:33:25.130Z,94548.00
2023-05-19T10:34:25.070Z,94550.00
2023-05-19T10:35:25.093Z,94548.00
2023-05-19T10:36:25.099Z,94544.00
2023-05-19T10:37:25.073Z,94538.00
2023-05-19T10:38:25.090Z,94536.00
2023-05-19T10:39:25.093Z,94534.00
2023-05-19T10:40:25.097Z,94532.00
2023-05-19T10:41:25.112Z,94528.00
2023-05-19T10:42:25.121Z,94530.00
2023-05-19T10:43:25.128Z,94530.00
2023-05-19T10:44:25.142Z,94528.00
2023-05-19T10:45:25.185Z,94528.00
2023-05-19T10:46:25.476Z,94526.00
2023-05-19T10:47:25.272Z,94526.00
2023-05-19T10:48:25.262Z,94526.00
2023-05-19T10:49:25.281Z,94524.00
2023-05-19T10:50:25.311Z,94520.00
2023-05-19T10:51:25.353Z,94522.00
2023-05-19T10:52:25.376Z,94520.00
2023-05-19T10:53:25.419Z,94522.00
2023-05-19T10:54:25.468Z,94518.00
2023-05-19T10:55:25.510Z,94514.00
2023-05-19T10:56:25.572Z,94514.00
2023-05-19T10:57:25.645Z,94512.00
2023-05-19T10:58:25.682Z,94510.00
2023-05-19T10:59:27.325Z,94510.00
2023-05-19T11:00:25.821Z,94514.00
2023-05-19T11:01:25.930Z,94514.00
2023-05-19T11:02:26.144Z,94514.00
2023-05-19T11:03:26.001Z,94514.00
2023-05-19T11:04:26.123Z,94510.00
2023-05-19T11:05:26.107Z,94510.00
2023-05-19T11:06:26.170Z,94508.00
2023-05-19T11:07:26.233Z,94506.00
2023-05-19T11:08:26.277Z,94508.00
2023-05-19T11:09:37.986Z,94510.00
2023-05-19T11:10:27.345Z,94508.00
2023-05-19T11:11:26.315Z,94504.00
2023-05-19T11:12:26.344Z,94504.00
2023-05-19T11:13:26.490Z,94504.00
2023-05-19T11:14:26.330Z,94501.00
2023-05-19T11:15:26.379Z,94499.00
2023-05-19T11:16:26.359Z,94499.00
2023-05-19T11:17:26.340Z,94501.00
2023-05-19T11:18:26.336Z,94497.00
2023-05-19T11:19:26.448Z,94499.00
2023-05-19T11:20:26.449Z,94493.00
2023-05-19T11:21:26.533Z,94495.00
2023-05-19T11:22:26.541Z,94497.00
2023-05-19T11:23:26.641Z,94495.00
2023-05-19T11:24:26.638Z,94497.00
2023-05-19T11:25:26.662Z,94493.00
2023-05-19T11:26:26.706Z,94489.00
2023-05-19T11:27:26.715Z,94493.00
2023-05-19T11:28:26.836Z,94489.00
2023-05-19T11:29:26.776Z,94491.00
2023-05-19T11:30:26.795Z,94489.00
2023-05-19T11:31:26.868Z,94487.00
2023-05-19T11:32:26.910Z,94487.00
2023-05-19T11:33:26.888Z,94485.00
2023-05-19T11:34:26.894Z,94481.00
2023-05-19T11:35:26.939Z,94481.00
2023-05-19T11:36:26.935Z,94481.00
2023-05-19T11:37:26.987Z,94477.00
2023-05-19T11:38:27.024Z,94477.00
2023-05-19T11:39:27.013Z,94477.00
2023-05-19T11:40:27.034Z,94473.00
2023-05-19T11:41:27.074Z,94473.00
2023-05-19T11:42:27.103Z,94471.00
2023-05-19T11:43:27.180Z,94465.00
2023-05-19T11:44:27.176Z,94465.00